sensor_id;sensor_type;location;lat;lon;timestamp;pressure;altitude;pressure_sealevel;temperature;humidity
59337;BME280;45115;52.002;4.686;2022-11-12T00:01:33;103195.25;;;4.65;100.00
59337;BME280;45115;52.002;4.686;2022-11-12T00:04:18;103177.69;;;4.65;100.00
59337;BME280;45115;52.002;4.686;2022-11-12T00:07:04;103175.53;;;4.69;100.00
59337;BME280;45115;52.002;4.686;2022-11-12T00:09:49;103183.22;;;4.79;100.00
59337;BME280;45115;52.002;4.686;2022-11-12T00:12:34;103189.84;;;4.67;100.00
59337;BME280;45115;52.002;4.686;2022-11-12T00:15:21;103187.19;;;4.67;100.00
59337;BME280;45115;52.002;4.686;2022-11-12T00:18:07;103185.66;;;4.81;100.00
59337;BME280;45115;52.002;4.686;2022-11-12T00:20:52;103176.91;;;4.97;100.00
59337;BME280;45115;52.002;4.686;2022-11-12T00:23:37;103180.13;;;5.39;100.00
59337;BME280;45115;52.002;4.686;2022-11-12T00:26:23;103192.16;;;5.65;100.00
59337;BME280;45115;52.002;4.686;2022-11-12T00:29:08;103191.84;;;5.83;100.00
59337;BME280;45115;52.002;4.686;2022-11-12T00:31:55;103183.81;;;5.99;100.00
59337;BME280;45115;52.002;4.686;2022-11-12T00:34:40;103184.59;;;6.08;100.00
59337;BME280;45115;52.002;4.686;2022-11-12T00:37:25;103191.81;;;6.15;100.00
59337;BME280;45115;52.002;4.686;2022-11-12T00:40:10;103184.75;;;6.30;100.00
59337;BME280;45115;52.002;4.686;2022-11-12T00:42:56;103191.25;;;6.34;100.00
59337;BME280;45115;52.002;4.686;2022-11-12T00:45:41;103196.91;;;6.46;100.00
59337;BME280;45115;52.002;4.686;2022-11-12T00:48:28;103202.47;;;6.51;100.00
59337;BME280;45115;52.002;4.686;2022-11-12T00:51:13;103207.41;;;6.55;100.00
59337;BME280;45115;52.002;4.686;2022-11-12T00:53:58;103199.09;;;6.58;100.00
59337;BME280;45115;52.002;4.686;2022-11-12T00:56:45;103188.66;;;6.64;100.00
59337;BME280;45115;52.002;4.686;2022-11-12T00:59:30;103188.94;;;6.70;100.00
59337;BME280;45115;52.002;4.686;2022-11-12T01:02:15;103184.56;;;6.77;100.00
59337;BME280;45115;52.002;4.686;2022-11-12T01:05:02;103183.91;;;6.90;100.00
59337;BME280;45115;52.002;4.686;2022-11-12T01:07:48;103188.47;;;6.96;100.00
59337;BME280;45115;52.002;4.686;2022-11-12T01:10:34;103189.53;;;7.02;100.00
59337;BME280;45115;52.002;4.686;2022-11-12T01:13:19;103193.09;;;7.09;100.00
59337;BME280;45115;52.002;4.686;2022-11-12T01:16:05;103195.34;;;7.12;100.00
59337;BME280;45115;52.002;4.686;2022-11-12T01:18:52;103200.69;;;7.19;100.00
59337;BME280;45115;52.002;4.686;2022-11-12T01:21:41;103210.44;;;7.18;100.00
59337;BME280;45115;52.002;4.686;2022-11-12T01:24:27;103207.72;;;7.12;100.00
59337;BME280;45115;52.002;4.686;2022-11-12T01:27:12;103208.28;;;7.07;100.00
59337;BME280;45115;52.002;4.686;2022-11-12T01:29:57;103209.91;;;7.08;100.00
59337;BME280;45115;52.002;4.686;2022-11-12T01:32:42;103214.00;;;7.11;100.00
59337;BME280;45115;52.002;4.686;2022-11-12T01:35:28;103205.44;;;7.09;100.00
59337;BME280;45115;52.002;4.686;2022-11-12T01:38:15;103207.00;;;7.03;100.00
59337;BME280;45115;52.002;4.686;2022-11-12T01:41:00;103201.09;;;7.01;100.00
59337;BME280;45115;52.002;4.686;2022-11-12T01:43:45;103202.09;;;7.00;100.00
59337;BME280;45115;52.002;4.686;2022-11-12T01:46:31;103200.34;;;7.07;100.00
59337;BME280;45115;52.002;4.686;2022-11-12T01:49:30;103190.19;;;7.04;100.00
59337;BME280;45115;52.002;4.686;2022-11-12T01:52:20;103190.06;;;7.12;100.00
59337;BME280;45115;52.002;4.686;2022-11-12T01:55:10;103192.69;;;7.12;100.00
59337;BME280;45115;52.002;4.686;2022-11-12T01:57:59;103191.16;;;7.18;100.00
59337;BME280;45115;52.002;4.686;2022-11-12T02:00:48;103190.97;;;7.20;100.00
59337;BME280;45115;52.002;4.686;2022-11-12T02:03:34;103186.13;;;7.23;100.00
59337;BME280;45115;52.002;4.686;2022-11-12T02:06:20;103186.13;;;7.23;100.00
59337;BME280;45115;52.002;4.686;2022-11-12T02:09:06;103195.31;;;7.27;100.00
59337;BME280;45115;52.002;4.686;2022-11-12T02:11:53;103190.84;;;7.28;100.00
59337;BME280;45115;52.002;4.686;2022-11-12T02:14:38;103179.75;;;7.17;100.00
59337;BME280;45115;52.002;4.686;2022-11-12T02:17:22;103179.22;;;7.22;100.00
59337;BME280;45115;52.002;4.686;2022-11-12T02:20:08;103180.00;;;7.23;100.00
59337;BME280;45115;52.002;4.686;2022-11-12T02:22:55;103180.47;;;7.26;100.00
59337;BME280;45115;52.002;4.686;2022-11-12T02:25:41;103167.25;;;7.26;100.00
59337;BME280;45115;52.002;4.686;2022-11-12T02:28:26;103182.91;;;7.28;100.00
59337;BME280;45115;52.002;4.686;2022-11-12T02:31:12;103178.91;;;7.32;100.00
59337;BME280;45115;52.002;4.686;2022-11-12T02:33:58;103176.50;;;7.37;100.00
59337;BME280;45115;52.002;4.686;2022-11-12T02:36:46;103166.78;;;7.38;100.00
59337;BME280;45115;52.002;4.686;2022-11-12T02:39:33;103162.31;;;7.38;100.00
59337;BME280;45115;52.002;4.686;2022-11-12T02:42:18;103159.41;;;7.33;100.00
59337;BME280;45115;52.002;4.686;2022-11-12T02:45:04;103163.38;;;7.44;100.00
59337;BME280;45115;52.002;4.686;2022-11-12T02:47:49;103163.00;;;7.47;100.00
59337;BME280;45115;52.002;4.686;2022-11-12T02:50:38;103155.47;;;7.44;100.00
59337;BME280;45115;52.002;4.686;2022-11-12T02:53:23;103160.09;;;7.42;100.00
59337;BME280;45115;52.002;4.686;2022-11-12T02:56:10;103159.91;;;7.43;100.00
59337;BME280;45115;52.002;4.686;2022-11-12T02:58:55;103163.22;;;7.46;100.00
59337;BME280;45115;52.002;4.686;2022-11-12T03:01:41;103158.09;;;7.44;100.00
59337;BME280;45115;52.002;4.686;2022-11-12T03:05:07;103160.16;;;7.49;100.00
59337;BME280;45115;52.002;4.686;2022-11-12T03:08:07;103168.91;;;7.49;100.00
59337;BME280;45115;52.002;4.686;2022-11-12T03:10:56;103176.19;;;7.47;100.00
59337;BME280;45115;52.002;4.686;2022-11-12T03:13:42;103174.22;;;7.49;100.00
59337;BME280;45115;52.002;4.686;2022-11-12T03:16:28;103173.19;;;7.50;100.00
59337;BME280;45115;52.002;4.686;2022-11-12T03:19:13;103168.28;;;7.47;100.00
59337;BME280;45115;52.002;4.686;2022-11-12T03:21:58;103164.00;;;7.46;100.00
59337;BME280;45115;52.002;4.686;2022-11-12T03:24:43;103163.22;;;7.46;100.00
59337;BME280;45115;52.002;4.686;2022-11-12T03:27:29;103165.19;;;7.43;100.00
59337;BME280;45115;52.002;4.686;2022-11-12T03:30:16;103169.47;;;7.44;100.00
59337;BME280;45115;52.002;4.686;2022-11-12T03:33:01;103166.53;;;7.33;100.00
59337;BME280;45115;52.002;4.686;2022-11-12T03:35:46;103166.78;;;7.38;100.00
59337;BME280;45115;52.002;4.686;2022-11-12T03:38:31;103163.50;;;7.36;100.00
59337;BME280;45115;52.002;4.686;2022-11-12T03:41:17;103175.91;;;7.35;100.00
59337;BME280;45115;52.002;4.686;2022-11-12T03:44:02;103179.09;;;7.30;100.00
59337;BME280;45115;52.002;4.686;2022-11-12T03:46:49;103170.09;;;7.25;100.00
59337;BME280;45115;52.002;4.686;2022-11-12T03:49:34;103173.47;;;7.18;100.00
59337;BME280;45115;52.002;4.686;2022-11-12T03:52:19;103167.03;;;7.06;100.00
59337;BME280;45115;52.002;4.686;2022-11-12T03:55:05;103169.06;;;6.89;100.00
59337;BME280;45115;52.002;4.686;2022-11-12T03:57:51;103170.09;;;6.73;100.00
59337;BME280;45115;52.002;4.686;2022-11-12T04:00:37;103167.56;;;6.64;100.00
59337;BME280;45115;52.002;4.686;2022-11-12T04:03:24;103168.91;;;6.45;100.00
59337;BME280;45115;52.002;4.686;2022-11-12T04:06:09;103170.56;;;6.31;100.00
59337;BME280;45115;52.002;4.686;2022-11-12T04:09:12;103165.78;;;6.11;100.00
59337;BME280;45115;52.002;4.686;2022-11-12T04:11:57;103164.28;;;5.94;100.00
59337;BME280;45115;52.002;4.686;2022-11-12T04:15:03;103163.94;;;5.74;100.00
59337;BME280;45115;52.002;4.686;2022-11-12T04:17:48;103161.72;;;5.62;100.00
59337;BME280;45115;52.002;4.686;2022-11-12T04:20:52;103157.56;;;5.44;100.00
59337;BME280;45115;52.002;4.686;2022-11-12T04:23:56;103152.19;;;5.38;100.00
59337;BME280;45115;52.002;4.686;2022-11-12T04:26:41;103153.75;;;5.24;100.00
59337;BME280;45115;52.002;4.686;2022-11-12T04:29:25;103160.72;;;5.16;100.00
59337;BME280;45115;52.002;4.686;2022-11-12T04:32:29;103156.63;;;5.05;100.00
59337;BME280;45115;52.002;4.686;2022-11-12T04:35:15;103160.13;;;4.98;100.00
59337;BME280;45115;52.002;4.686;2022-11-12T04:38:03;103157.84;;;4.95;100.00
59337;BME280;45115;52.002;4.686;2022-11-12T04:40:48;103149.13;;;4.94;100.00
59337;BME280;45115;52.002;4.686;2022-11-12T04:43:52;103150.47;;;4.90;100.00
59337;BME280;45115;52.002;4.686;2022-11-12T04:46:54;103153.09;;;4.90;100.00
59337;BME280;45115;52.002;4.686;2022-11-12T04:49:40;103155.25;;;4.86;100.00
59337;BME280;45115;52.002;4.686;2022-11-12T04:52:25;103143.44;;;4.82;100.00
59337;BME280;45115;52.002;4.686;2022-11-12T04:55:13;103139.81;;;4.83;100.00
59337;BME280;45115;52.002;4.686;2022-11-12T04:57:58;103139.81;;;4.83;100.00
59337;BME280;45115;52.002;4.686;2022-11-12T05:00:43;103148.16;;;4.87;100.00
59337;BME280;45115;52.002;4.686;2022-11-12T05:03:29;103144.91;;;4.85;100.00
59337;BME280;45115;52.002;4.686;2022-11-12T05:06:14;103136.19;;;4.84;100.00
59337;BME280;45115;52.002;4.686;2022-11-12T05:09:13;103131.44;;;4.79;100.00
59337;BME280;45115;52.002;4.686;2022-11-12T05:11:59;103129.81;;;4.70;100.00
59337;BME280;45115;52.002;4.686;2022-11-12T05:14:45;103130.84;;;4.61;100.00
59337;BME280;45115;52.002;4.686;2022-11-12T05:17:30;103122.00;;;4.62;100.00
59337;BME280;45115;52.002;4.686;2022-11-12T05:20:16;103125.25;;;4.64;100.00
59337;BME280;45115;52.002;4.686;2022-11-12T05:23:01;103124.63;;;4.62;100.00
59337;BME280;45115;52.002;4.686;2022-11-12T05:25:46;103123.25;;;4.66;100.00
59337;BME280;45115;52.002;4.686;2022-11-12T05:28:33;103117.38;;;4.64;100.00
59337;BME280;45115;52.002;4.686;2022-11-12T05:31:18;103116.72;;;4.62;100.00
59337;BME280;45115;52.002;4.686;2022-11-12T05:34:03;103115.91;;;4.61;100.00
59337;BME280;45115;52.002;4.686;2022-11-12T05:36:49;103120.53;;;4.59;100.00
59337;BME280;45115;52.002;4.686;2022-11-12T05:39:34;103107.53;;;4.58;100.00
59337;BME280;45115;52.002;4.686;2022-11-12T05:42:19;103110.31;;;4.56;100.00
59337;BME280;45115;52.002;4.686;2022-11-12T05:45:07;103115.94;;;4.53;100.00
59337;BME280;45115;52.002;4.686;2022-11-12T05:47:53;103114.47;;;4.50;100.00
59337;BME280;45115;52.002;4.686;2022-11-12T05:50:38;103120.88;;;4.48;100.00
59337;BME280;45115;52.002;4.686;2022-11-12T05:53:23;103119.91;;;4.41;100.00
59337;BME280;45115;52.002;4.686;2022-11-12T05:56:09;103121.91;;;4.38;100.00
59337;BME280;45115;52.002;4.686;2022-11-12T05:58:55;103115.16;;;4.36;100.00
59337;BME280;45115;52.002;4.686;2022-11-12T06:01:42;103118.13;;;4.33;100.00
59337;BME280;45115;52.002;4.686;2022-11-12T06:04:27;103117.66;;;4.29;100.00
59337;BME280;45115;52.002;4.686;2022-11-12T06:07:12;103116.81;;;4.29;100.00
59337;BME280;45115;52.002;4.686;2022-11-12T06:09:58;103128.31;;;4.28;100.00
59337;BME280;45115;52.002;4.686;2022-11-12T06:12:43;103132.56;;;4.29;100.00
59337;BME280;45115;52.002;4.686;2022-11-12T06:15:29;103118.16;;;4.16;100.00
59337;BME280;45115;52.002;4.686;2022-11-12T06:18:20;103124.41;;;4.15;100.00
59337;BME280;45115;52.002;4.686;2022-11-12T06:21:07;103136.72;;;4.15;100.00
59337;BME280;45115;52.002;4.686;2022-11-12T06:24:06;103142.47;;;4.10;100.00
59337;BME280;45115;52.002;4.686;2022-11-12T06:26:51;103137.06;;;4.03;100.00
59337;BME280;45115;52.002;4.686;2022-11-12T06:29:36;103136.25;;;3.94;100.00
59337;BME280;45115;52.002;4.686;2022-11-12T06:32:22;103137.25;;;3.85;100.00
59337;BME280;45115;52.002;4.686;2022-11-12T06:35:11;103134.63;;;3.77;100.00
59337;BME280;45115;52.002;4.686;2022-11-12T06:37:57;103122.47;;;3.67;100.00
59337;BME280;45115;52.002;4.686;2022-11-12T06:40:42;103127.72;;;3.76;100.00
59337;BME280;45115;52.002;4.686;2022-11-12T06:43:32;103135.59;;;3.76;100.00
59337;BME280;45115;52.002;4.686;2022-11-12T06:46:20;103133.63;;;3.78;100.00
59337;BME280;45115;52.002;4.686;2022-11-12T06:49:05;103138.22;;;3.76;100.00
59337;BME280;45115;52.002;4.686;2022-11-12T06:51:52;103146.09;;;3.84;100.00
59337;BME280;45115;52.002;4.686;2022-11-12T06:54:37;103147.44;;;3.88;100.00
59337;BME280;45115;52.002;4.686;2022-11-12T06:57:23;103144.63;;;3.90;100.00
59337;BME280;45115;52.002;4.686;2022-11-12T07:00:09;103148.38;;;3.87;100.00
59337;BME280;45115;52.002;4.686;2022-11-12T07:02:55;103140.84;;;3.84;100.00
59337;BME280;45115;52.002;4.686;2022-11-12T07:05:40;103155.94;;;3.82;100.00
59337;BME280;45115;52.002;4.686;2022-11-12T07:08:27;103154.31;;;3.81;100.00
59337;BME280;45115;52.002;4.686;2022-11-12T07:11:12;103167.44;;;3.97;100.00
59337;BME280;45115;52.002;4.686;2022-11-12T07:13:57;103159.22;;;4.01;100.00
59337;BME280;45115;52.002;4.686;2022-11-12T07:16:43;103164.31;;;4.02;100.00
59337;BME280;45115;52.002;4.686;2022-11-12T07:19:28;103166.28;;;4.00;100.00
59337;BME280;45115;52.002;4.686;2022-11-12T07:22:14;103164.47;;;4.01;100.00
59337;BME280;45115;52.002;4.686;2022-11-12T07:25:00;103166.47;;;3.98;100.00
59337;BME280;45115;52.002;4.686;2022-11-12T07:27:45;103153.66;;;4.04;100.00
59337;BME280;45115;52.002;4.686;2022-11-12T07:30:32;103161.88;;;4.09;100.00
59337;BME280;45115;52.002;4.686;2022-11-12T07:33:18;103156.94;;;4.14;100.00
59337;BME280;45115;52.002;4.686;2022-11-12T07:36:05;103167.75;;;4.19;100.00
59337;BME280;45115;52.002;4.686;2022-11-12T07:38:52;103159.53;;;4.22;100.00
59337;BME280;45115;52.002;4.686;2022-11-12T07:41:38;103169.53;;;4.35;100.00
59337;BME280;45115;52.002;4.686;2022-11-12T07:44:23;103162.47;;;4.36;100.00
59337;BME280;45115;52.002;4.686;2022-11-12T07:47:09;103166.22;;;4.50;100.00
59337;BME280;45115;52.002;4.686;2022-11-12T07:49:54;103169.47;;;4.60;100.00
59337;BME280;45115;52.002;4.686;2022-11-12T07:52:40;103163.38;;;4.68;100.00
59337;BME280;45115;52.002;4.686;2022-11-12T07:55:25;103170.56;;;4.83;100.00
59337;BME280;45115;52.002;4.686;2022-11-12T07:58:11;103173.13;;;4.99;100.00
59337;BME280;45115;52.002;4.686;2022-11-12T08:00:57;103167.81;;;5.08;100.00
59337;BME280;45115;52.002;4.686;2022-11-12T08:03:50;103180.59;;;5.19;100.00
59337;BME280;45115;52.002;4.686;2022-11-12T08:06:35;103180.53;;;5.27;100.00
59337;BME280;45115;52.002;4.686;2022-11-12T08:09:20;103181.31;;;5.36;100.00
59337;BME280;45115;52.002;4.686;2022-11-12T08:12:06;103180.44;;;5.44;100.00
59337;BME280;45115;52.002;4.686;2022-11-12T08:14:52;103182.31;;;5.58;100.00
59337;BME280;45115;52.002;4.686;2022-11-12T08:17:38;103179.66;;;5.67;100.00
59337;BME280;45115;52.002;4.686;2022-11-12T08:20:23;103177.75;;;5.76;100.00
59337;BME280;45115;52.002;4.686;2022-11-12T08:23:09;103182.16;;;5.83;100.00
59337;BME280;45115;52.002;4.686;2022-11-12T08:25:57;103183.19;;;5.97;100.00
59337;BME280;45115;52.002;4.686;2022-11-12T08:28:42;103178.34;;;6.09;100.00
59337;BME280;45115;52.002;4.686;2022-11-12T08:31:29;103192.78;;;6.14;100.00
59337;BME280;45115;52.002;4.686;2022-11-12T08:34:14;103187.28;;;6.23;100.00
59337;BME280;45115;52.002;4.686;2022-11-12T08:36:59;103191.47;;;6.33;100.00
59337;BME280;45115;52.002;4.686;2022-11-12T08:39:44;103184.91;;;6.44;100.00
59337;BME280;45115;52.002;4.686;2022-11-12T08:42:30;103195.28;;;6.60;100.00
59337;BME280;45115;52.002;4.686;2022-11-12T08:45:15;103189.84;;;6.62;100.00
59337;BME280;45115;52.002;4.686;2022-11-12T08:48:04;103185.38;;;6.77;100.00
59337;BME280;45115;52.002;4.686;2022-11-12T08:50:51;103195.63;;;6.87;100.00
59337;BME280;45115;52.002;4.686;2022-11-12T08:53:36;103185.59;;;7.13;100.00
59337;BME280;45115;52.002;4.686;2022-11-12T08:56:21;103184.94;;;7.48;100.00
59337;BME280;45115;52.002;4.686;2022-11-12T08:59:07;103181.28;;;7.70;100.00
59337;BME280;45115;52.002;4.686;2022-11-12T09:01:52;103191.28;;;7.97;100.00
59337;BME280;45115;52.002;4.686;2022-11-12T09:04:39;103192.34;;;8.03;100.00
59337;BME280;45115;52.002;4.686;2022-11-12T09:07:24;103205.00;;;8.36;100.00
59337;BME280;45115;52.002;4.686;2022-11-12T09:10:09;103194.44;;;8.43;100.00
59337;BME280;45115;52.002;4.686;2022-11-12T09:12:55;103192.97;;;8.62;100.00
59337;BME280;45115;52.002;4.686;2022-11-12T09:15:41;103197.72;;;8.73;100.00
59337;BME280;45115;52.002;4.686;2022-11-12T09:18:27;103194.50;;;8.85;100.00
59337;BME280;45115;52.002;4.686;2022-11-12T09:21:13;103192.03;;;8.83;100.00
59337;BME280;45115;52.002;4.686;2022-11-12T09:23:59;103186.56;;;8.85;100.00
59337;BME280;45115;52.002;4.686;2022-11-12T09:26:44;103192.44;;;8.87;100.00
59337;BME280;45115;52.002;4.686;2022-11-12T09:29:30;103190.50;;;9.09;100.00
59337;BME280;45115;52.002;4.686;2022-11-12T09:32:16;103187.31;;;9.27;100.00
59337;BME280;45115;52.002;4.686;2022-11-12T09:35:04;103189.56;;;9.37;100.00
59337;BME280;45115;52.002;4.686;2022-11-12T09:37:52;103180.41;;;9.47;100.00
59337;BME280;45115;52.002;4.686;2022-11-12T09:41:07;103181.66;;;9.57;100.00
59337;BME280;45115;52.002;4.686;2022-11-12T09:43:59;103171.66;;;9.60;100.00
59337;BME280;45115;52.002;4.686;2022-11-12T09:46:47;103177.38;;;9.77;100.00
59337;BME280;45115;52.002;4.686;2022-11-12T09:49:37;103187.56;;;10.07;100.00
59337;BME280;45115;52.002;4.686;2022-11-12T09:52:26;103180.81;;;10.18;100.00
59337;BME280;45115;52.002;4.686;2022-11-12T09:55:17;103176.91;;;10.34;100.00
59337;BME280;45115;52.002;4.686;2022-11-12T09:58:09;103174.84;;;10.43;100.00
59337;BME280;45115;52.002;4.686;2022-11-12T10:00:57;103169.53;;;10.43;100.00
59337;BME280;45115;52.002;4.686;2022-11-12T10:03:53;103175.44;;;10.65;100.00
59337;BME280;45115;52.002;4.686;2022-11-12T10:06:49;103179.91;;;10.65;100.00
59337;BME280;45115;52.002;4.686;2022-11-12T10:09:43;103177.41;;;10.83;100.00
59337;BME280;45115;52.002;4.686;2022-11-12T10:12:44;103175.28;;;10.99;100.00
59337;BME280;45115;52.002;4.686;2022-11-12T10:15:44;103178.66;;;11.20;100.00
59337;BME280;45115;52.002;4.686;2022-11-12T10:19:04;103170.84;;;11.57;100.00
59337;BME280;45115;52.002;4.686;2022-11-12T10:21:57;103178.13;;;11.87;100.00
59337;BME280;45115;52.002;4.686;2022-11-12T10:24:48;103182.16;;;11.96;100.00
59337;BME280;45115;52.002;4.686;2022-11-12T10:27:39;103172.50;;;12.02;100.00
59337;BME280;45115;52.002;4.686;2022-11-12T10:30:25;103180.81;;;12.13;100.00
59337;BME280;45115;52.002;4.686;2022-11-12T10:33:13;103183.78;;;12.23;100.00
59337;BME280;45115;52.002;4.686;2022-11-12T10:36:14;103175.66;;;12.18;100.00
59337;BME280;45115;52.002;4.686;2022-11-12T10:39:01;103179.56;;;12.34;100.00
59337;BME280;45115;52.002;4.686;2022-11-12T10:42:01;103182.44;;;12.32;100.00
59337;BME280;45115;52.002;4.686;2022-11-12T10:44:48;103186.44;;;12.42;100.00
59337;BME280;45115;52.002;4.686;2022-11-12T10:47:36;103184.91;;;12.53;100.00
59337;BME280;45115;52.002;4.686;2022-11-12T10:50:28;103185.84;;;12.58;100.00
59337;BME280;45115;52.002;4.686;2022-11-12T10:53:30;103187.78;;;12.70;100.00
59337;BME280;45115;52.002;4.686;2022-11-12T10:56:24;103180.88;;;12.81;100.00
59337;BME280;45115;52.002;4.686;2022-11-12T10:59:14;103183.38;;;12.94;100.00
59337;BME280;45115;52.002;4.686;2022-11-12T11:02:00;103180.28;;;13.09;100.00
59337;BME280;45115;52.002;4.686;2022-11-12T11:04:46;103177.31;;;13.18;100.00
59337;BME280;45115;52.002;4.686;2022-11-12T11:07:31;103172.44;;;13.14;100.00
59337;BME280;45115;52.002;4.686;2022-11-12T11:10:23;103172.47;;;13.26;100.00
59337;BME280;45115;52.002;4.686;2022-11-12T11:13:19;103167.94;;;13.58;100.00
59337;BME280;45115;52.002;4.686;2022-11-12T11:16:06;103164.22;;;13.71;100.00
59337;BME280;45115;52.002;4.686;2022-11-12T11:18:54;103165.16;;;13.76;100.00
59337;BME280;45115;52.002;4.686;2022-11-12T11:22:04;103165.38;;;13.99;100.00
59337;BME280;45115;52.002;4.686;2022-11-12T11:24:59;103160.59;;;14.01;100.00
59337;BME280;45115;52.002;4.686;2022-11-12T11:28:00;103158.16;;;14.11;100.00
59337;BME280;45115;52.002;4.686;2022-11-12T11:30:54;103145.19;;;14.03;100.00
59337;BME280;45115;52.002;4.686;2022-11-12T11:33:45;103154.69;;;14.11;100.00
59337;BME280;45115;52.002;4.686;2022-11-12T11:36:37;103142.63;;;14.20;100.00
59337;BME280;45115;52.002;4.686;2022-11-12T11:39:33;103145.53;;;14.18;100.00
59337;BME280;45115;52.002;4.686;2022-11-12T11:42:45;103128.69;;;14.06;100.00
59337;BME280;45115;52.002;4.686;2022-11-12T11:45:49;103132.41;;;14.05;100.00
59337;BME280;45115;52.002;4.686;2022-11-12T11:48:53;103124.28;;;14.24;100.00
59337;BME280;45115;52.002;4.686;2022-11-12T11:51:50;103124.84;;;14.14;100.00
59337;BME280;45115;52.002;4.686;2022-11-12T11:55:00;103115.22;;;14.13;100.00
59337;BME280;45115;52.002;4.686;2022-11-12T11:57:54;103107.31;;;14.18;100.00
59337;BME280;45115;52.002;4.686;2022-11-12T12:00:56;103104.75;;;14.23;100.00
59337;BME280;45115;52.002;4.686;2022-11-12T12:03:55;103098.38;;;14.24;100.00
59337;BME280;45115;52.002;4.686;2022-11-12T12:06:56;103091.47;;;14.40;100.00
59337;BME280;45115;52.002;4.686;2022-11-12T12:09:47;103084.31;;;14.29;100.00
59337;BME280;45115;52.002;4.686;2022-11-12T12:12:48;103080.59;;;14.30;100.00
59337;BME280;45115;52.002;4.686;2022-11-12T12:15:55;103073.09;;;14.44;100.00
59337;BME280;45115;52.002;4.686;2022-11-12T12:18:51;103073.75;;;14.51;100.00
59337;BME280;45115;52.002;4.686;2022-11-12T12:21:40;103069.34;;;14.57;100.00
59337;BME280;45115;52.002;4.686;2022-11-12T12:24:34;103068.59;;;14.61;100.00
59337;BME280;45115;52.002;4.686;2022-11-12T12:27:25;103056.44;;;14.54;100.00
59337;BME280;45115;52.002;4.686;2022-11-12T12:30:17;103066.75;;;14.62;100.00
59337;BME280;45115;52.002;4.686;2022-11-12T12:33:14;103064.72;;;14.81;100.00
59337;BME280;45115;52.002;4.686;2022-11-12T12:36:08;103061.06;;;14.87;100.00
59337;BME280;45115;52.002;4.686;2022-11-12T12:39:03;103061.09;;;15.05;100.00
59337;BME280;45115;52.002;4.686;2022-11-12T12:41:54;103061.66;;;15.07;100.00
59337;BME280;45115;52.002;4.686;2022-11-12T12:48:16;103051.78;;;15.07;100.00
59337;BME280;45115;52.002;4.686;2022-11-12T12:51:03;103041.50;;;14.99;100.00
59337;BME280;45115;52.002;4.686;2022-11-12T12:53:48;103034.28;;;14.99;100.00
59337;BME280;45115;52.002;4.686;2022-11-12T12:56:47;103023.34;;;15.01;100.00
59337;BME280;45115;52.002;4.686;2022-11-12T12:59:33;103021.41;;;14.96;100.00
59337;BME280;45115;52.002;4.686;2022-11-12T13:02:20;103024.72;;;15.04;100.00
59337;BME280;45115;52.002;4.686;2022-11-12T13:05:22;103035.00;;;15.12;100.00
59337;BME280;45115;52.002;4.686;2022-11-12T13:08:10;103040.34;;;15.12;100.00
59337;BME280;45115;52.002;4.686;2022-11-12T13:10:56;103020.44;;;15.03;100.00
59337;BME280;45115;52.002;4.686;2022-11-12T13:13:42;103026.66;;;15.08;100.00
59337;BME280;45115;52.002;4.686;2022-11-12T13:16:57;103020.50;;;15.08;100.00
59337;BME280;45115;52.002;4.686;2022-11-12T13:19:45;103006.47;;;15.00;100.00
59337;BME280;45115;52.002;4.686;2022-11-12T13:22:49;103004.16;;;15.04;100.00
59337;BME280;45115;52.002;4.686;2022-11-12T13:25:34;102993.47;;;15.04;100.00
59337;BME280;45115;52.002;4.686;2022-11-12T13:28:20;102988.34;;;15.03;100.00
59337;BME280;45115;52.002;4.686;2022-11-12T13:31:23;102987.44;;;14.97;100.00
59337;BME280;45115;52.002;4.686;2022-11-12T13:34:19;102987.22;;;14.98;100.00
59337;BME280;45115;52.002;4.686;2022-11-12T13:37:17;103002.13;;;14.94;100.00
59337;BME280;45115;52.002;4.686;2022-11-12T13:40:09;102980.66;;;14.89;100.00
59337;BME280;45115;52.002;4.686;2022-11-12T13:42:57;102980.25;;;14.80;100.00
59337;BME280;45115;52.002;4.686;2022-11-12T13:45:46;102983.56;;;14.70;100.00
59337;BME280;45115;52.002;4.686;2022-11-12T13:48:35;102985.78;;;14.61;100.00
59337;BME280;45115;52.002;4.686;2022-11-12T13:51:36;102990.97;;;14.51;100.00
59337;BME280;45115;52.002;4.686;2022-11-12T13:54:30;102992.53;;;14.47;100.00
59337;BME280;45115;52.002;4.686;2022-11-12T13:57:28;102996.56;;;14.50;100.00
59337;BME280;45115;52.002;4.686;2022-11-12T14:00:22;102991.94;;;14.45;100.00
59337;BME280;45115;52.002;4.686;2022-11-12T14:03:15;102993.78;;;14.27;100.00
59337;BME280;45115;52.002;4.686;2022-11-12T14:06:05;103010.75;;;14.21;100.00
59337;BME280;45115;52.002;4.686;2022-11-12T14:09:14;103007.97;;;14.16;100.00
59337;BME280;45115;52.002;4.686;2022-11-12T14:12:21;103007.06;;;14.10;100.00
59337;BME280;45115;52.002;4.686;2022-11-12T14:15:22;103007.28;;;14.08;100.00
59337;BME280;45115;52.002;4.686;2022-11-12T14:18:15;103005.22;;;14.11;100.00
59337;BME280;45115;52.002;4.686;2022-11-12T14:21:04;103001.72;;;14.10;100.00
59337;BME280;45115;52.002;4.686;2022-11-12T14:23:50;103003.00;;;14.07;100.00
59337;BME280;45115;52.002;4.686;2022-11-12T14:26:39;102999.78;;;14.05;100.00
59337;BME280;45115;52.002;4.686;2022-11-12T14:29:24;102996.78;;;14.02;100.00
59337;BME280;45115;52.002;4.686;2022-11-12T14:32:10;102984.38;;;13.95;100.00
59337;BME280;45115;52.002;4.686;2022-11-12T14:34:55;102979.19;;;13.89;100.00
59337;BME280;45115;52.002;4.686;2022-11-12T14:37:45;102981.75;;;13.84;100.00
59337;BME280;45115;52.002;4.686;2022-11-12T14:40:35;102983.97;;;13.75;100.00
59337;BME280;45115;52.002;4.686;2022-11-12T14:43:31;102985.28;;;13.60;100.00
59337;BME280;45115;52.002;4.686;2022-11-12T14:46:22;102969.53;;;13.47;100.00